Raith, Canada
Current Conditions -  °F | °C
As of 9:00 PM on Saturday 22 Nov 2014 (Local Time) from CYQT Reporting Station
Overcast Overcast  
Wind Chill: 31°   Ceiling: 2100
Heat Index: 36°   Visibility: 15mi
Dew Point: 32°   Wind: 6mph
Humidity: 87%   Direction: 80°E
Pressure: 29.66"   Gusts: NA
Location:  48.83°N, 89.92°W
Report Text: CYQT 230200Z 08005KT 15SM OVC021 02/M00 A2966 RMK SC8 SLP055
Loading
Personal Weather Stations






























Interactive Weather Map New forecast layout! Learn more

10-Day Weather Forecast

Advertisements
Track Severe Weather on mobile